sensor_id;sensor_type;location;lat;lon;timestamp;P1;durP1;ratioP1;P2;durP2;ratioP2
2019;SDS011;1014;51.960;8.542;2023-07-24T00:00:33;21.07;;;19.97;;
2019;SDS011;1014;51.960;8.542;2023-07-24T00:03:03;21.70;;;20.60;;
2019;SDS011;1014;51.960;8.542;2023-07-24T00:05:30;22.27;;;21.17;;
2019;SDS011;1014;51.960;8.542;2023-07-24T00:07:57;21.87;;;20.73;;
2019;SDS011;1014;51.960;8.542;2023-07-24T00:10:24;21.40;;;20.40;;
2019;SDS011;1014;51.960;8.542;2023-07-24T00:12:51;22.20;;;21.10;;
2019;SDS011;1014;51.960;8.542;2023-07-24T00:15:18;21.23;;;20.13;;
2019;SDS011;1014;51.960;8.542;2023-07-24T00:17:46;21.13;;;20.13;;
2019;SDS011;1014;51.960;8.542;2023-07-24T00:20:14;21.73;;;20.63;;
2019;SDS011;1014;51.960;8.542;2023-07-24T00:22:41;22.43;;;21.37;;
2019;SDS011;1014;51.960;8.542;2023-07-24T00:25:08;22.20;;;21.03;;
2019;SDS011;1014;51.960;8.542;2023-07-24T00:27:35;21.93;;;20.83;;
2019;SDS011;1014;51.960;8.542;2023-07-24T00:30:02;21.70;;;20.60;;
2019;SDS011;1014;51.960;8.542;2023-07-24T00:32:30;21.63;;;20.50;;
2019;SDS011;1014;51.960;8.542;2023-07-24T00:34:57;22.30;;;21.10;;
2019;SDS011;1014;51.960;8.542;2023-07-24T00:37:25;23.47;;;22.27;;
2019;SDS011;1014;51.960;8.542;2023-07-24T00:39:52;22.30;;;21.20;;
2019;SDS011;1014;51.960;8.542;2023-07-24T00:42:19;23.07;;;21.90;;
2019;SDS011;1014;51.960;8.542;2023-07-24T00:44:46;20.90;;;19.90;;
2019;SDS011;1014;51.960;8.542;2023-07-24T00:47:13;22.97;;;21.67;;
2019;SDS011;1014;51.960;8.542;2023-07-24T00:49:40;22.00;;;20.90;;
2019;SDS011;1014;51.960;8.542;2023-07-24T00:52:08;23.60;;;22.40;;
2019;SDS011;1014;51.960;8.542;2023-07-24T00:54:36;23.33;;;22.13;;
2019;SDS011;1014;51.960;8.542;2023-07-24T00:57:04;22.80;;;21.67;;
2019;SDS011;1014;51.960;8.542;2023-07-24T00:59:32;23.50;;;22.17;;
2019;SDS011;1014;51.960;8.542;2023-07-24T01:01:59;23.20;;;22.00;;
2019;SDS011;1014;51.960;8.542;2023-07-24T01:04:26;23.03;;;21.73;;
2019;SDS011;1014;51.960;8.542;2023-07-24T01:06:53;23.40;;;22.20;;
2019;SDS011;1014;51.960;8.542;2023-07-24T01:09:21;22.53;;;21.33;;
2019;SDS011;1014;51.960;8.542;2023-07-24T01:11:51;23.40;;;22.10;;
2019;SDS011;1014;51.960;8.542;2023-07-24T01:14:21;23.90;;;22.70;;
2019;SDS011;1014;51.960;8.542;2023-07-24T01:16:48;23.43;;;22.13;;
2019;SDS011;1014;51.960;8.542;2023-07-24T01:19:20;23.40;;;22.10;;
2019;SDS011;1014;51.960;8.542;2023-07-24T01:21:52;23.20;;;21.97;;
2019;SDS011;1014;51.960;8.542;2023-07-24T01:24:29;22.00;;;20.70;;
2019;SDS011;1014;51.960;8.542;2023-07-24T01:26:58;22.43;;;21.30;;
2019;SDS011;1014;51.960;8.542;2023-07-24T01:29:25;22.63;;;21.43;;
2019;SDS011;1014;51.960;8.542;2023-07-24T01:31:52;23.03;;;21.83;;
2019;SDS011;1014;51.960;8.542;2023-07-24T01:34:19;23.20;;;21.90;;
2019;SDS011;1014;51.960;8.542;2023-07-24T01:36:47;23.10;;;21.90;;
2019;SDS011;1014;51.960;8.542;2023-07-24T01:39:15;24.03;;;22.73;;
2019;SDS011;1014;51.960;8.542;2023-07-24T01:41:43;23.97;;;22.67;;
2019;SDS011;1014;51.960;8.542;2023-07-24T01:44:12;23.90;;;22.67;;
2019;SDS011;1014;51.960;8.542;2023-07-24T01:46:39;23.90;;;22.50;;
2019;SDS011;1014;51.960;8.542;2023-07-24T01:49:06;22.30;;;21.10;;
2019;SDS011;1014;51.960;8.542;2023-07-24T01:51:33;22.97;;;21.87;;
2019;SDS011;1014;51.960;8.542;2023-07-24T01:54:00;22.50;;;21.30;;
2019;SDS011;1014;51.960;8.542;2023-07-24T01:56:27;22.87;;;21.67;;
2019;SDS011;1014;51.960;8.542;2023-07-24T01:58:54;23.53;;;22.23;;
2019;SDS011;1014;51.960;8.542;2023-07-24T02:01:22;23.87;;;22.53;;
2019;SDS011;1014;51.960;8.542;2023-07-24T02:03:50;24.50;;;22.70;;
2019;SDS011;1014;51.960;8.542;2023-07-24T02:06:17;23.93;;;22.53;;
2019;SDS011;1014;51.960;8.542;2023-07-24T02:08:44;20.63;;;19.63;;
2019;SDS011;1014;51.960;8.542;2023-07-24T02:11:13;23.00;;;21.73;;
2019;SDS011;1014;51.960;8.542;2023-07-24T02:13:40;21.93;;;20.83;;
2019;SDS011;1014;51.960;8.542;2023-07-24T02:16:07;22.80;;;21.50;;
2019;SDS011;1014;51.960;8.542;2023-07-24T02:18:36;21.97;;;20.87;;
2019;SDS011;1014;51.960;8.542;2023-07-24T02:21:03;22.33;;;21.17;;
2019;SDS011;1014;51.960;8.542;2023-07-24T02:23:30;22.63;;;21.37;;
2019;SDS011;1014;51.960;8.542;2023-07-24T02:25:57;22.23;;;20.93;;
2019;SDS011;1014;51.960;8.542;2023-07-24T02:28:24;22.00;;;20.80;;
2019;SDS011;1014;51.960;8.542;2023-07-24T02:30:51;22.67;;;21.37;;
2019;SDS011;1014;51.960;8.542;2023-07-24T02:33:21;22.13;;;20.80;;
2019;SDS011;1014;51.960;8.542;2023-07-24T02:35:50;21.77;;;20.47;;
2019;SDS011;1014;51.960;8.542;2023-07-24T02:38:18;21.23;;;20.13;;
2019;SDS011;1014;51.960;8.542;2023-07-24T02:40:45;23.07;;;21.90;;
2019;SDS011;1014;51.960;8.542;2023-07-24T02:43:12;22.97;;;21.67;;
2019;SDS011;1014;51.960;8.542;2023-07-24T02:45:40;23.60;;;22.03;;
2019;SDS011;1014;51.960;8.542;2023-07-24T02:48:07;23.57;;;22.07;;
2019;SDS011;1014;51.960;8.542;2023-07-24T02:50:34;23.43;;;22.23;;
2019;SDS011;1014;51.960;8.542;2023-07-24T02:53:02;22.73;;;21.33;;
2019;SDS011;1014;51.960;8.542;2023-07-24T02:55:30;24.13;;;22.83;;
2019;SDS011;1014;51.960;8.542;2023-07-24T02:57:57;24.63;;;23.13;;
2019;SDS011;1014;51.960;8.542;2023-07-24T03:00:24;24.47;;;23.07;;
2019;SDS011;1014;51.960;8.542;2023-07-24T03:02:51;22.13;;;21.00;;
2019;SDS011;1014;51.960;8.542;2023-07-24T03:05:19;24.63;;;23.20;;
2019;SDS011;1014;51.960;8.542;2023-07-24T03:07:46;24.63;;;23.33;;
2019;SDS011;1014;51.960;8.542;2023-07-24T03:10:14;24.47;;;23.03;;
2019;SDS011;1014;51.960;8.542;2023-07-24T03:12:41;24.43;;;22.73;;
2019;SDS011;1014;51.960;8.542;2023-07-24T03:15:08;24.23;;;22.73;;
2019;SDS011;1014;51.960;8.542;2023-07-24T03:17:35;24.50;;;23.10;;
2019;SDS011;1014;51.960;8.542;2023-07-24T03:20:09;24.33;;;22.73;;
2019;SDS011;1014;51.960;8.542;2023-07-24T03:22:36;24.00;;;22.70;;
2019;SDS011;1014;51.960;8.542;2023-07-24T03:25:03;25.50;;;24.10;;
2019;SDS011;1014;51.960;8.542;2023-07-24T03:27:32;24.80;;;23.40;;
2019;SDS011;1014;51.960;8.542;2023-07-24T03:29:59;25.27;;;23.77;;
2019;SDS011;1014;51.960;8.542;2023-07-24T03:32:26;25.70;;;24.10;;
2019;SDS011;1014;51.960;8.542;2023-07-24T03:34:53;24.10;;;22.70;;
2019;SDS011;1014;51.960;8.542;2023-07-24T03:37:20;25.00;;;23.70;;
2019;SDS011;1014;51.960;8.542;2023-07-24T03:39:47;25.60;;;23.90;;
2019;SDS011;1014;51.960;8.542;2023-07-24T03:42:24;25.40;;;24.00;;
2019;SDS011;1014;51.960;8.542;2023-07-24T03:44:52;23.83;;;22.63;;
2019;SDS011;1014;51.960;8.542;2023-07-24T03:47:19;24.07;;;22.53;;
2019;SDS011;1014;51.960;8.542;2023-07-24T03:49:46;24.70;;;23.20;;
2019;SDS011;1014;51.960;8.542;2023-07-24T03:52:13;24.63;;;22.90;;
2019;SDS011;1014;51.960;8.542;2023-07-24T03:54:40;25.07;;;23.77;;
2019;SDS011;1014;51.960;8.542;2023-07-24T03:57:07;24.73;;;23.13;;
2019;SDS011;1014;51.960;8.542;2023-07-24T03:59:35;24.07;;;22.67;;
2019;SDS011;1014;51.960;8.542;2023-07-24T04:02:04;24.07;;;22.77;;
2019;SDS011;1014;51.960;8.542;2023-07-24T04:04:31;24.33;;;22.83;;
2019;SDS011;1014;51.960;8.542;2023-07-24T04:06:59;23.90;;;22.40;;
2019;SDS011;1014;51.960;8.542;2023-07-24T04:09:26;24.20;;;22.77;;
2019;SDS011;1014;51.960;8.542;2023-07-24T04:11:53;23.97;;;22.67;;
2019;SDS011;1014;51.960;8.542;2023-07-24T04:14:20;24.20;;;22.70;;
2019;SDS011;1014;51.960;8.542;2023-07-24T04:16:47;25.37;;;23.77;;
2019;SDS011;1014;51.960;8.542;2023-07-24T04:19:15;24.77;;;23.30;;
2019;SDS011;1014;51.960;8.542;2023-07-24T04:21:42;25.23;;;23.57;;
2019;SDS011;1014;51.960;8.542;2023-07-24T04:24:09;23.70;;;22.20;;
2019;SDS011;1014;51.960;8.542;2023-07-24T04:26:37;24.03;;;22.63;;
2019;SDS011;1014;51.960;8.542;2023-07-24T04:29:04;23.70;;;22.40;;
2019;SDS011;1014;51.960;8.542;2023-07-24T04:31:31;23.00;;;21.67;;
2019;SDS011;1014;51.960;8.542;2023-07-24T04:33:59;22.40;;;21.20;;
2019;SDS011;1014;51.960;8.542;2023-07-24T04:36:27;22.97;;;21.67;;
2019;SDS011;1014;51.960;8.542;2023-07-24T04:38:55;24.17;;;22.77;;
2019;SDS011;1014;51.960;8.542;2023-07-24T04:41:22;23.00;;;21.60;;
2019;SDS011;1014;51.960;8.542;2023-07-24T04:43:49;21.90;;;20.70;;
2019;SDS011;1014;51.960;8.542;2023-07-24T04:46:16;22.10;;;20.80;;
2019;SDS011;1014;51.960;8.542;2023-07-24T04:48:43;22.47;;;21.37;;
2019;SDS011;1014;51.960;8.542;2023-07-24T04:51:10;22.80;;;21.50;;
2019;SDS011;1014;51.960;8.542;2023-07-24T04:53:38;22.50;;;21.20;;
2019;SDS011;1014;51.960;8.542;2023-07-24T04:56:05;22.33;;;21.13;;
2019;SDS011;1014;51.960;8.542;2023-07-24T04:58:32;21.27;;;19.97;;
2019;SDS011;1014;51.960;8.542;2023-07-24T05:01:01;21.87;;;20.57;;
2019;SDS011;1014;51.960;8.542;2023-07-24T05:03:29;21.97;;;20.67;;
2019;SDS011;1014;51.960;8.542;2023-07-24T05:05:56;20.87;;;19.70;;
2019;SDS011;1014;51.960;8.542;2023-07-24T05:08:23;21.90;;;20.80;;
2019;SDS011;1014;51.960;8.542;2023-07-24T05:10:54;22.37;;;21.13;;
2019;SDS011;1014;51.960;8.542;2023-07-24T05:13:22;21.47;;;20.37;;
2019;SDS011;1014;51.960;8.542;2023-07-24T05:15:49;21.57;;;20.30;;
2019;SDS011;1014;51.960;8.542;2023-07-24T05:18:16;23.00;;;20.97;;
2019;SDS011;1014;51.960;8.542;2023-07-24T05:20:44;21.63;;;20.40;;
2019;SDS011;1014;51.960;8.542;2023-07-24T05:23:12;21.87;;;20.67;;
2019;SDS011;1014;51.960;8.542;2023-07-24T05:25:39;22.07;;;20.83;;
2019;SDS011;1014;51.960;8.542;2023-07-24T05:28:07;21.87;;;20.67;;
2019;SDS011;1014;51.960;8.542;2023-07-24T05:30:34;22.07;;;20.80;;
2019;SDS011;1014;51.960;8.542;2023-07-24T05:33:01;21.80;;;20.60;;
2019;SDS011;1014;51.960;8.542;2023-07-24T05:35:29;21.73;;;20.63;;
2019;SDS011;1014;51.960;8.542;2023-07-24T05:37:56;21.47;;;20.07;;
2019;SDS011;1014;51.960;8.542;2023-07-24T05:40:23;22.00;;;20.83;;
2019;SDS011;1014;51.960;8.542;2023-07-24T05:42:50;21.47;;;20.37;;
2019;SDS011;1014;51.960;8.542;2023-07-24T05:45:18;19.43;;;18.47;;
2019;SDS011;1014;51.960;8.542;2023-07-24T05:47:45;20.63;;;19.33;;
2019;SDS011;1014;51.960;8.542;2023-07-24T05:50:12;23.50;;;22.10;;
2019;SDS011;1014;51.960;8.542;2023-07-24T05:52:39;21.47;;;20.13;;
2019;SDS011;1014;51.960;8.542;2023-07-24T05:55:07;21.87;;;20.20;;
2019;SDS011;1014;51.960;8.542;2023-07-24T05:57:34;21.97;;;20.73;;
2019;SDS011;1014;51.960;8.542;2023-07-24T06:00:03;21.47;;;20.20;;
2019;SDS011;1014;51.960;8.542;2023-07-24T06:02:31;21.90;;;20.60;;
2019;SDS011;1014;51.960;8.542;2023-07-24T06:04:58;22.13;;;20.93;;
2019;SDS011;1014;51.960;8.542;2023-07-24T06:07:25;22.73;;;21.33;;
2019;SDS011;1014;51.960;8.542;2023-07-24T06:09:52;21.53;;;20.43;;
2019;SDS011;1014;51.960;8.542;2023-07-24T06:12:20;24.83;;;23.10;;
2019;SDS011;1014;51.960;8.542;2023-07-24T06:14:47;25.80;;;24.10;;
2019;SDS011;1014;51.960;8.542;2023-07-24T06:17:14;26.93;;;25.10;;
2019;SDS011;1014;51.960;8.542;2023-07-24T06:19:42;27.33;;;25.63;;
2019;SDS011;1014;51.960;8.542;2023-07-24T06:22:09;26.47;;;24.60;;
2019;SDS011;1014;51.960;8.542;2023-07-24T06:24:36;26.20;;;24.50;;
2019;SDS011;1014;51.960;8.542;2023-07-24T06:27:04;26.13;;;24.27;;
2019;SDS011;1014;51.960;8.542;2023-07-24T06:29:32;27.00;;;25.30;;
2019;SDS011;1014;51.960;8.542;2023-07-24T06:32:00;27.83;;;26.03;;
2019;SDS011;1014;51.960;8.542;2023-07-24T06:34:28;28.90;;;27.03;;
2019;SDS011;1014;51.960;8.542;2023-07-24T06:36:56;29.60;;;27.50;;
2019;SDS011;1014;51.960;8.542;2023-07-24T06:39:23;29.40;;;27.37;;
2019;SDS011;1014;51.960;8.542;2023-07-24T06:41:51;28.60;;;26.93;;
2019;SDS011;1014;51.960;8.542;2023-07-24T06:44:18;28.87;;;26.97;;
2019;SDS011;1014;51.960;8.542;2023-07-24T06:46:45;29.53;;;27.33;;
2019;SDS011;1014;51.960;8.542;2023-07-24T06:49:12;28.90;;;27.03;;
2019;SDS011;1014;51.960;8.542;2023-07-24T06:51:39;28.70;;;26.90;;
2019;SDS011;1014;51.960;8.542;2023-07-24T06:54:07;26.73;;;24.87;;
2019;SDS011;1014;51.960;8.542;2023-07-24T06:56:34;29.20;;;27.50;;
2019;SDS011;1014;51.960;8.542;2023-07-24T06:59:01;28.43;;;26.80;;
2019;SDS011;1014;51.960;8.542;2023-07-24T07:01:28;27.30;;;25.80;;
2019;SDS011;1014;51.960;8.542;2023-07-24T07:03:55;27.83;;;26.10;;
2019;SDS011;1014;51.960;8.542;2023-07-24T07:06:22;27.10;;;25.50;;
2019;SDS011;1014;51.960;8.542;2023-07-24T07:08:49;25.60;;;24.07;;
2019;SDS011;1014;51.960;8.542;2023-07-24T07:11:18;25.53;;;23.73;;
2019;SDS011;1014;51.960;8.542;2023-07-24T07:13:45;25.13;;;23.83;;
2019;SDS011;1014;51.960;8.542;2023-07-24T07:16:12;26.20;;;24.70;;
2019;SDS011;1014;51.960;8.542;2023-07-24T07:18:39;26.17;;;24.70;;
2019;SDS011;1014;51.960;8.542;2023-07-24T07:21:06;25.37;;;23.97;;
2019;SDS011;1014;51.960;8.542;2023-07-24T07:23:33;26.30;;;24.80;;
2019;SDS011;1014;51.960;8.542;2023-07-24T07:26:02;28.50;;;26.57;;
2019;SDS011;1014;51.960;8.542;2023-07-24T07:28:31;28.37;;;26.47;;
2019;SDS011;1014;51.960;8.542;2023-07-24T07:30:58;29.97;;;27.63;;
2019;SDS011;1014;51.960;8.542;2023-07-24T07:33:25;30.57;;;28.77;;
2019;SDS011;1014;51.960;8.542;2023-07-24T07:35:52;29.37;;;27.57;;
2019;SDS011;1014;51.960;8.542;2023-07-24T07:38:19;30.87;;;28.43;;
2019;SDS011;1014;51.960;8.542;2023-07-24T07:40:47;30.80;;;28.50;;
2019;SDS011;1014;51.960;8.542;2023-07-24T07:43:14;30.87;;;28.97;;
2019;SDS011;1014;51.960;8.542;2023-07-24T07:45:43;28.10;;;26.50;;
2019;SDS011;1014;51.960;8.542;2023-07-24T07:48:10;29.13;;;27.43;;
2019;SDS011;1014;51.960;8.542;2023-07-24T07:50:37;29.63;;;27.83;;
2019;SDS011;1014;51.960;8.542;2023-07-24T07:53:04;29.40;;;27.43;;
2019;SDS011;1014;51.960;8.542;2023-07-24T07:55:31;30.33;;;28.33;;
2019;SDS011;1014;51.960;8.542;2023-07-24T07:57:58;29.17;;;27.37;;
2019;SDS011;1014;51.960;8.542;2023-07-24T08:00:25;31.60;;;29.20;;
2019;SDS011;1014;51.960;8.542;2023-07-24T08:02:53;30.37;;;28.27;;
2019;SDS011;1014;51.960;8.542;2023-07-24T08:05:21;29.47;;;27.27;;
2019;SDS011;1014;51.960;8.542;2023-07-24T08:07:48;27.67;;;25.57;;
2019;SDS011;1014;51.960;8.542;2023-07-24T08:10:15;27.43;;;25.40;;
2019;SDS011;1014;51.960;8.542;2023-07-24T08:12:42;25.40;;;23.90;;
2019;SDS011;1014;51.960;8.542;2023-07-24T08:15:09;25.63;;;23.93;;
2019;SDS011;1014;51.960;8.542;2023-07-24T08:17:36;26.53;;;24.53;;
2019;SDS011;1014;51.960;8.542;2023-07-24T08:20:06;23.13;;;21.83;;
2019;SDS011;1014;51.960;8.542;2023-07-24T08:22:33;21.90;;;20.70;;
2019;SDS011;1014;51.960;8.542;2023-07-24T08:25:00;23.30;;;21.90;;
2019;SDS011;1014;51.960;8.542;2023-07-24T08:27:27;23.77;;;22.37;;
2019;SDS011;1014;51.960;8.542;2023-07-24T08:29:54;23.57;;;21.97;;
2019;SDS011;1014;51.960;8.542;2023-07-24T08:32:21;24.17;;;22.47;;
2019;SDS011;1014;51.960;8.542;2023-07-24T08:34:48;24.53;;;23.03;;
2019;SDS011;1014;51.960;8.542;2023-07-24T08:37:17;24.30;;;22.87;;
2019;SDS011;1014;51.960;8.542;2023-07-24T08:39:44;23.77;;;22.40;;
2019;SDS011;1014;51.960;8.542;2023-07-24T08:42:11;23.50;;;22.20;;
2019;SDS011;1014;51.960;8.542;2023-07-24T08:44:39;23.47;;;22.17;;
2019;SDS011;1014;51.960;8.542;2023-07-24T08:47:09;24.10;;;22.73;;
2019;SDS011;1014;51.960;8.542;2023-07-24T08:49:36;25.10;;;23.50;;
2019;SDS011;1014;51.960;8.542;2023-07-24T08:52:05;25.20;;;23.63;;
2019;SDS011;1014;51.960;8.542;2023-07-24T08:54:34;25.43;;;23.80;;
2019;SDS011;1014;51.960;8.542;2023-07-24T08:57:01;25.93;;;24.23;;
2019;SDS011;1014;51.960;8.542;2023-07-24T08:59:29;24.53;;;23.13;;
2019;SDS011;1014;51.960;8.542;2023-07-24T09:01:56;23.87;;;22.47;;
2019;SDS011;1014;51.960;8.542;2023-07-24T09:04:23;24.50;;;23.00;;
2019;SDS011;1014;51.960;8.542;2023-07-24T09:06:50;25.00;;;23.50;;
2019;SDS011;1014;51.960;8.542;2023-07-24T09:09:18;23.77;;;22.13;;
2019;SDS011;1014;51.960;8.542;2023-07-24T09:11:47;24.73;;;23.00;;
2019;SDS011;1014;51.960;8.542;2023-07-24T09:14:19;24.53;;;22.63;;
2019;SDS011;1014;51.960;8.542;2023-07-24T09:16:46;23.47;;;21.83;;
2019;SDS011;1014;51.960;8.542;2023-07-24T09:19:17;24.80;;;23.10;;
2019;SDS011;1014;51.960;8.542;2023-07-24T09:21:44;23.57;;;22.07;;
2019;SDS011;1014;51.960;8.542;2023-07-24T09:24:12;23.33;;;21.97;;
2019;SDS011;1014;51.960;8.542;2023-07-24T09:26:50;23.77;;;22.20;;
2019;SDS011;1014;51.960;8.542;2023-07-24T09:29:18;23.00;;;21.70;;
2019;SDS011;1014;51.960;8.542;2023-07-24T09:31:45;23.40;;;21.90;;
2019;SDS011;1014;51.960;8.542;2023-07-24T09:34:13;24.07;;;22.57;;
2019;SDS011;1014;51.960;8.542;2023-07-24T09:36:41;24.33;;;22.73;;
2019;SDS011;1014;51.960;8.542;2023-07-24T09:39:08;24.83;;;23.33;;
2019;SDS011;1014;51.960;8.542;2023-07-24T09:41:36;23.97;;;22.47;;
2019;SDS011;1014;51.960;8.542;2023-07-24T09:44:04;24.30;;;22.70;;
2019;SDS011;1014;51.960;8.542;2023-07-24T09:46:32;24.73;;;23.23;;
2019;SDS011;1014;51.960;8.542;2023-07-24T09:48:59;23.27;;;21.70;;
2019;SDS011;1014;51.960;8.542;2023-07-24T09:51:28;24.77;;;23.27;;
2019;SDS011;1014;51.960;8.542;2023-07-24T09:53:58;22.73;;;21.33;;
2019;SDS011;1014;51.960;8.542;2023-07-24T09:56:25;23.40;;;22.00;;
2019;SDS011;1014;51.960;8.542;2023-07-24T09:58:53;23.10;;;21.70;;
2019;SDS011;1014;51.960;8.542;2023-07-24T10:01:22;24.03;;;22.43;;
2019;SDS011;1014;51.960;8.542;2023-07-24T10:03:49;47.00;;;24.57;;
2019;SDS011;1014;51.960;8.542;2023-07-24T10:06:16;30.57;;;28.87;;
2019;SDS011;1014;51.960;8.542;2023-07-24T10:08:44;25.50;;;23.70;;
2019;SDS011;1014;51.960;8.542;2023-07-24T10:11:11;27.40;;;25.60;;
2019;SDS011;1014;51.960;8.542;2023-07-24T10:13:39;27.90;;;25.90;;
2019;SDS011;1014;51.960;8.542;2023-07-24T10:16:06;26.87;;;25.20;;
2019;SDS011;1014;51.960;8.542;2023-07-24T10:18:40;27.77;;;26.03;;
2019;SDS011;1014;51.960;8.542;2023-07-24T10:21:08;27.97;;;26.17;;
2019;SDS011;1014;51.960;8.542;2023-07-24T10:23:36;27.83;;;26.03;;
2019;SDS011;1014;51.960;8.542;2023-07-24T10:26:03;26.23;;;24.47;;
2019;SDS011;1014;51.960;8.542;2023-07-24T10:28:31;26.80;;;25.00;;
2019;SDS011;1014;51.960;8.542;2023-07-24T10:31:00;26.93;;;25.23;;
2019;SDS011;1014;51.960;8.542;2023-07-24T10:33:29;26.33;;;24.63;;
2019;SDS011;1014;51.960;8.542;2023-07-24T10:36:04;26.23;;;24.63;;
2019;SDS011;1014;51.960;8.542;2023-07-24T10:38:35;26.10;;;24.40;;
2019;SDS011;1014;51.960;8.542;2023-07-24T10:41:02;25.67;;;24.03;;
2019;SDS011;1014;51.960;8.542;2023-07-24T10:43:39;25.93;;;24.33;;
2019;SDS011;1014;51.960;8.542;2023-07-24T10:46:07;24.87;;;23.20;;
2019;SDS011;1014;51.960;8.542;2023-07-24T10:48:34;24.93;;;23.43;;
2019;SDS011;1014;51.960;8.542;2023-07-24T10:51:07;27.50;;;25.73;;
2019;SDS011;1014;51.960;8.542;2023-07-24T10:53:34;28.57;;;26.80;;
2019;SDS011;1014;51.960;8.542;2023-07-24T10:56:01;28.30;;;26.53;;
2019;SDS011;1014;51.960;8.542;2023-07-24T10:58:29;26.20;;;24.50;;
2019;SDS011;1014;51.960;8.542;2023-07-24T11:00:56;26.43;;;24.83;;
2019;SDS011;1014;51.960;8.542;2023-07-24T11:03:24;25.60;;;24.10;;
2019;SDS011;1014;51.960;8.542;2023-07-24T11:05:51;25.70;;;24.20;;
2019;SDS011;1014;51.960;8.542;2023-07-24T11:08:20;23.60;;;22.00;;
2019;SDS011;1014;51.960;8.542;2023-07-24T11:10:48;24.60;;;23.10;;
2019;SDS011;1014;51.960;8.542;2023-07-24T11:13:15;23.27;;;21.87;;
2019;SDS011;1014;51.960;8.542;2023-07-24T11:15:42;23.60;;;22.10;;
2019;SDS011;1014;51.960;8.542;2023-07-24T11:18:09;22.60;;;20.97;;
2019;SDS011;1014;51.960;8.542;2023-07-24T11:20:37;23.60;;;22.30;;
2019;SDS011;1014;51.960;8.542;2023-07-24T11:23:04;23.00;;;21.70;;
2019;SDS011;1014;51.960;8.542;2023-07-24T11:25:33;23.50;;;21.80;;
2019;SDS011;1014;51.960;8.542;2023-07-24T11:28:00;24.47;;;22.97;;
2019;SDS011;1014;51.960;8.542;2023-07-24T11:30:29;23.90;;;22.50;;
2019;SDS011;1014;51.960;8.542;2023-07-24T11:32:57;23.67;;;22.17;;
2019;SDS011;1014;51.960;8.542;2023-07-24T11:35:26;23.67;;;22.17;;
2019;SDS011;1014;51.960;8.542;2023-07-24T11:37:53;25.17;;;23.57;;
2019;SDS011;1014;51.960;8.542;2023-07-24T11:40:20;22.63;;;21.33;;
2019;SDS011;1014;51.960;8.542;2023-07-24T11:42:49;23.20;;;21.57;;
2019;SDS011;1014;51.960;8.542;2023-07-24T11:45:16;23.30;;;21.80;;
2019;SDS011;1014;51.960;8.542;2023-07-24T11:47:43;24.63;;;23.23;;
2019;SDS011;1014;51.960;8.542;2023-07-24T11:50:11;23.33;;;21.80;;
2019;SDS011;1014;51.960;8.542;2023-07-24T11:52:38;23.60;;;22.20;;
2019;SDS011;1014;51.960;8.542;2023-07-24T11:55:06;23.77;;;22.27;;
2019;SDS011;1014;51.960;8.542;2023-07-24T11:57:33;23.47;;;22.07;;
2019;SDS011;1014;51.960;8.542;2023-07-24T12:00:02;22.90;;;21.40;;
2019;SDS011;1014;51.960;8.542;2023-07-24T12:02:31;22.17;;;20.77;;
2019;SDS011;1014;51.960;8.542;2023-07-24T12:04:58;23.53;;;21.90;;
2019;SDS011;1014;51.960;8.542;2023-07-24T12:07:29;23.87;;;22.30;;
2019;SDS011;1014;51.960;8.542;2023-07-24T12:09:57;23.90;;;22.50;;
2019;SDS011;1014;51.960;8.542;2023-07-24T12:12:24;24.30;;;22.90;;
2019;SDS011;1014;51.960;8.542;2023-07-24T12:14:51;24.60;;;23.10;;
2019;SDS011;1014;51.960;8.542;2023-07-24T12:17:20;23.70;;;22.20;;
2019;SDS011;1014;51.960;8.542;2023-07-24T12:19:47;23.93;;;22.53;;
2019;SDS011;1014;51.960;8.542;2023-07-24T12:22:14;23.33;;;21.93;;
2019;SDS011;1014;51.960;8.542;2023-07-24T12:24:41;22.40;;;21.00;;
2019;SDS011;1014;51.960;8.542;2023-07-24T12:27:08;23.77;;;22.30;;
2019;SDS011;1014;51.960;8.542;2023-07-24T12:29:35;22.83;;;21.40;;
2019;SDS011;1014;51.960;8.542;2023-07-24T12:32:02;22.37;;;21.10;;
2019;SDS011;1014;51.960;8.542;2023-07-24T12:34:31;23.63;;;22.20;;
2019;SDS011;1014;51.960;8.542;2023-07-24T12:36:58;22.33;;;21.03;;
2019;SDS011;1014;51.960;8.542;2023-07-24T12:39:25;23.40;;;22.00;;
2019;SDS011;1014;51.960;8.542;2023-07-24T12:41:52;23.07;;;21.70;;
2019;SDS011;1014;51.960;8.542;2023-07-24T12:44:19;22.80;;;21.30;;
2019;SDS011;1014;51.960;8.542;2023-07-24T12:46:46;25.47;;;23.40;;
2019;SDS011;1014;51.960;8.542;2023-07-24T12:49:13;41.97;;;38.23;;
2019;SDS011;1014;51.960;8.542;2023-07-24T12:51:42;64.30;;;59.70;;
2019;SDS011;1014;51.960;8.542;2023-07-24T12:54:09;69.33;;;64.70;;
2019;SDS011;1014;51.960;8.542;2023-07-24T12:56:36;70.87;;;66.17;;
2019;SDS011;1014;51.960;8.542;2023-07-24T12:59:03;62.30;;;58.70;;
2019;SDS011;1014;51.960;8.542;2023-07-24T13:01:30;57.40;;;54.00;;
2019;SDS011;1014;51.960;8.542;2023-07-24T13:03:57;59.33;;;55.47;;
2019;SDS011;1014;51.960;8.542;2023-07-24T13:06:25;53.80;;;50.70;;
2019;SDS011;1014;51.960;8.542;2023-07-24T13:08:53;58.10;;;54.20;;
2019;SDS011;1014;51.960;8.542;2023-07-24T13:11:20;59.47;;;55.87;;
2019;SDS011;1014;51.960;8.542;2023-07-24T13:13:47;59.17;;;55.77;;
2019;SDS011;1014;51.960;8.542;2023-07-24T13:16:15;72.30;;;58.97;;
2019;SDS011;1014;51.960;8.542;2023-07-24T13:18:42;62.57;;;58.67;;
2019;SDS011;1014;51.960;8.542;2023-07-24T13:21:09;61.23;;;57.53;;
2019;SDS011;1014;51.960;8.542;2023-07-24T13:23:36;65.10;;;60.87;;
2019;SDS011;1014;51.960;8.542;2023-07-24T13:26:05;65.73;;;61.40;;
2019;SDS011;1014;51.960;8.542;2023-07-24T13:28:33;62.70;;;58.73;;
2019;SDS011;1014;51.960;8.542;2023-07-24T13:31:10;66.27;;;61.97;;
2019;SDS011;1014;51.960;8.542;2023-07-24T13:33:37;56.43;;;53.10;;
2019;SDS011;1014;51.960;8.542;2023-07-24T13:36:05;61.20;;;57.30;;
2019;SDS011;1014;51.960;8.542;2023-07-24T13:38:32;60.83;;;56.73;;
2019;SDS011;1014;51.960;8.542;2023-07-24T13:40:59;51.57;;;48.60;;
2019;SDS011;1014;51.960;8.542;2023-07-24T13:43:27;57.20;;;53.80;;
2019;SDS011;1014;51.960;8.542;2023-07-24T13:45:55;57.30;;;53.37;;
2019;SDS011;1014;51.960;8.542;2023-07-24T13:48:22;55.87;;;51.77;;
2019;SDS011;1014;51.960;8.542;2023-07-24T13:50:49;52.20;;;49.07;;
2019;SDS011;1014;51.960;8.542;2023-07-24T13:53:16;57.53;;;53.93;;
2019;SDS011;1014;51.960;8.542;2023-07-24T13:55:43;53.63;;;50.43;;
2019;SDS011;1014;51.960;8.542;2023-07-24T13:58:10;50.17;;;47.17;;
2019;SDS011;1014;51.960;8.542;2023-07-24T14:00:39;52.47;;;49.40;;
2019;SDS011;1014;51.960;8.542;2023-07-24T14:03:06;49.47;;;46.67;;
2019;SDS011;1014;51.960;8.542;2023-07-24T14:05:33;49.90;;;47.10;;
2019;SDS011;1014;51.960;8.542;2023-07-24T14:08:01;47.03;;;44.33;;
2019;SDS011;1014;51.960;8.542;2023-07-24T14:10:28;50.37;;;47.53;;
2019;SDS011;1014;51.960;8.542;2023-07-24T14:12:55;51.30;;;48.30;;
2019;SDS011;1014;51.960;8.542;2023-07-24T14:15:22;52.37;;;48.50;;
2019;SDS011;1014;51.960;8.542;2023-07-24T14:17:51;49.93;;;47.13;;
2019;SDS011;1014;51.960;8.542;2023-07-24T14:20:18;48.43;;;45.83;;
2019;SDS011;1014;51.960;8.542;2023-07-24T14:22:45;46.97;;;44.17;;
2019;SDS011;1014;51.960;8.542;2023-07-24T14:25:12;47.43;;;44.73;;
2019;SDS011;1014;51.960;8.542;2023-07-24T14:27:39;47.30;;;44.70;;
2019;SDS011;1014;51.960;8.542;2023-07-24T14:30:08;46.03;;;43.33;;
2019;SDS011;1014;51.960;8.542;2023-07-24T14:32:35;45.30;;;42.73;;
2019;SDS011;1014;51.960;8.542;2023-07-24T14:35:04;47.37;;;44.67;;
2019;SDS011;1014;51.960;8.542;2023-07-24T14:37:32;45.83;;;43.33;;
2019;SDS011;1014;51.960;8.542;2023-07-24T14:39:59;46.63;;;43.80;;
2019;SDS011;1014;51.960;8.542;2023-07-24T14:42:26;37.27;;;35.17;;
2019;SDS011;1014;51.960;8.542;2023-07-24T14:44:53;37.50;;;35.27;;
2019;SDS011;1014;51.960;8.542;2023-07-24T14:47:20;30.73;;;29.07;;
2019;SDS011;1014;51.960;8.542;2023-07-24T14:49:47;29.07;;;27.57;;